createdAt,value
2017-07-20T00:01:55.722Z,99.90
2017-07-20T00:04:24.201Z,99.90
2017-07-20T00:06:52.524Z,99.90
2017-07-20T00:09:20.856Z,99.90
2017-07-20T00:11:50.059Z,99.90
2017-07-20T00:14:18.359Z,99.90
2017-07-20T00:16:47.673Z,99.90
2017-07-20T00:19:17.200Z,99.90
2017-07-20T00:21:45.542Z,99.90
2017-07-20T00:24:14.609Z,99.90
2017-07-20T00:26:43.738Z,99.90
2017-07-20T00:29:12.046Z,99.70
2017-07-20T00:31:40.410Z,99.80
2017-07-20T00:34:09.398Z,99.80
2017-07-20T00:36:37.743Z,99.50
2017-07-20T00:39:07.081Z,99.40
2017-07-20T00:41:35.469Z,99.70
2017-07-20T00:44:03.818Z,99.50
2017-07-20T00:46:32.284Z,99.70
2017-07-20T00:49:01.924Z,99.80
2017-07-20T00:51:31.133Z,99.90
2017-07-20T00:53:59.619Z,99.90
2017-07-20T00:56:28.749Z,99.90
2017-07-20T00:58:57.989Z,99.90
2017-07-20T01:01:26.397Z,99.90
2017-07-20T01:03:55.139Z,99.90
2017-07-20T01:06:23.547Z,99.90
2017-07-20T01:08:51.876Z,99.90
2017-07-20T01:11:20.665Z,99.90
2017-07-20T01:13:48.980Z,99.90
2017-07-20T01:16:17.322Z,99.90
2017-07-20T01:18:46.006Z,99.90
2017-07-20T01:21:14.620Z,99.90
2017-07-20T01:23:42.949Z,99.90
2017-07-20T01:26:11.601Z,99.90
2017-07-20T01:28:39.965Z,99.90
2017-07-20T01:31:08.373Z,99.90
2017-07-20T01:33:38.470Z,99.90
2017-07-20T01:36:06.804Z,99.90
2017-07-20T01:38:36.069Z,99.90
2017-07-20T01:41:05.321Z,99.90
2017-07-20T01:43:33.761Z,99.90
2017-07-20T01:46:02.314Z,99.90
2017-07-20T01:48:31.035Z,99.90
2017-07-20T01:50:59.501Z,99.90
2017-07-20T01:53:28.051Z,99.90
2017-07-20T01:55:57.559Z,99.90
2017-07-20T01:58:27.032Z,99.90
2017-07-20T02:00:56.158Z,99.90
2017-07-20T02:03:24.561Z,99.90
2017-07-20T02:05:52.897Z,99.90
2017-07-20T02:08:21.220Z,99.90
2017-07-20T02:10:50.873Z,99.90
2017-07-20T02:13:19.216Z,99.90
2017-07-20T02:15:47.597Z,99.90
2017-07-20T02:18:18.292Z,99.90
2017-07-20T02:20:47.402Z,99.90
2017-07-20T02:23:15.838Z,99.90
2017-07-20T02:25:44.757Z,99.90
2017-07-20T02:28:13.074Z,99.90
2017-07-20T02:30:41.407Z,99.90
2017-07-20T02:33:11.989Z,99.90
2017-07-20T02:35:40.321Z,99.90
2017-07-20T02:38:08.679Z,99.90
2017-07-20T02:40:38.336Z,99.90
2017-07-20T02:43:07.479Z,99.90
2017-07-20T02:45:35.844Z,99.90
2017-07-20T02:48:04.558Z,99.90
2017-07-20T02:50:33.041Z,99.90
2017-07-20T02:53:01.534Z,99.90
2017-07-20T02:55:30.629Z,99.90
2017-07-20T02:57:59.006Z,99.90
2017-07-20T03:00:27.530Z,99.90
2017-07-20T03:02:56.536Z,99.90
2017-07-20T03:05:24.885Z,99.90
2017-07-20T03:07:53.235Z,99.90
2017-07-20T03:10:21.821Z,99.90
2017-07-20T03:12:50.219Z,99.90
2017-07-20T03:15:18.529Z,99.90
2017-07-20T03:17:48.131Z,99.90
2017-07-20T03:20:16.468Z,99.90
2017-07-20T03:22:46.643Z,99.90
2017-07-20T03:25:18.125Z,99.90
2017-07-20T03:27:46.446Z,99.90
2017-07-20T03:30:15.530Z,99.90
2017-07-20T03:32:44.861Z,99.90
2017-07-20T03:35:13.169Z,99.90
2017-07-20T03:37:41.484Z,99.90
2017-07-20T03:40:10.169Z,99.90
2017-07-20T03:42:38.529Z,99.90
2017-07-20T03:45:06.903Z,99.90
2017-07-20T03:47:35.818Z,99.90
2017-07-20T03:50:04.203Z,99.90
2017-07-20T03:52:32.603Z,99.90
2017-07-20T03:55:01.735Z,99.90
2017-07-20T03:57:50.470Z,99.90
2017-07-20T04:00:19.878Z,99.90
2017-07-20T04:02:48.189Z,99.90
2017-07-20T04:05:17.402Z,99.90
2017-07-20T04:07:46.929Z,99.90
2017-07-20T04:10:15.229Z,99.90
2017-07-20T04:12:43.549Z,99.90
2017-07-20T04:15:12.201Z,99.90
2017-07-20T04:17:40.590Z,99.90
2017-07-20T04:20:08.986Z,99.90
2017-07-20T04:22:38.369Z,99.90
2017-07-20T04:25:06.746Z,99.90
2017-07-20T04:27:36.819Z,99.90
2017-07-20T04:30:05.558Z,99.90
2017-07-20T04:32:33.934Z,99.90
2017-07-20T04:35:02.337Z,99.90
2017-07-20T04:37:31.194Z,99.90
2017-07-20T04:39:59.586Z,99.90
2017-07-20T04:42:28.030Z,99.90
2017-07-20T04:44:56.758Z,99.90
2017-07-20T04:47:25.732Z,99.90
2017-07-20T04:49:54.072Z,99.90
2017-07-20T04:52:23.471Z,99.90
2017-07-20T04:54:51.786Z,99.90
2017-07-20T04:57:20.109Z,99.90
2017-07-20T04:59:54.786Z,99.90
2017-07-20T05:02:23.099Z,99.90
2017-07-20T05:04:51.421Z,99.90
2017-07-20T05:07:20.570Z,99.90
2017-07-20T05:09:49.901Z,99.90
2017-07-20T05:12:19.700Z,99.90
2017-07-20T05:14:48.204Z,99.90
2017-07-20T05:17:16.538Z,99.90
2017-07-20T05:19:44.888Z,99.90
2017-07-20T05:22:13.812Z,99.90
2017-07-20T05:24:42.157Z,99.90
2017-07-20T05:27:10.527Z,99.90
2017-07-20T05:29:39.669Z,99.90
2017-07-20T05:32:08.021Z,99.90
2017-07-20T05:34:36.466Z,99.90
2017-07-20T05:37:05.253Z,99.90
2017-07-20T05:39:34.352Z,99.90
2017-07-20T05:42:02.742Z,99.90
2017-07-20T05:44:31.486Z,99.90
2017-07-20T05:46:59.939Z,99.80
2017-07-20T05:49:28.342Z,99.90
2017-07-20T05:51:59.568Z,99.90
2017-07-20T05:54:28.078Z,99.90
2017-07-20T05:56:57.305Z,99.70
2017-07-20T05:59:26.407Z,99.70
2017-07-20T06:01:54.786Z,99.50
2017-07-20T06:04:23.116Z,99.30
2017-07-20T06:06:51.654Z,99.40
2017-07-20T06:09:20.002Z,99.40
2017-07-20T06:11:48.361Z,99.50
2017-07-20T06:14:18.413Z,99.30
2017-07-20T06:16:46.752Z,98.90
2017-07-20T06:19:15.848Z,98.40
2017-07-20T06:21:44.253Z,98.40
2017-07-20T06:24:12.634Z,98.30
2017-07-20T06:26:41.160Z,98.30
2017-07-20T06:29:09.970Z,97.70
2017-07-20T06:31:38.770Z,97.70
2017-07-20T06:34:07.867Z,97.50
2017-07-20T06:36:37.515Z,97.50
2017-07-20T06:39:05.913Z,97.30
2017-07-20T06:41:36.254Z,97.40
2017-07-20T06:44:05.025Z,96.90
2017-07-20T06:46:33.389Z,96.70
2017-07-20T06:49:01.782Z,96.80
2017-07-20T06:51:30.734Z,97.00
2017-07-20T06:53:59.128Z,97.30
2017-07-20T06:56:27.626Z,97.30
2017-07-20T06:58:57.800Z,97.10
2017-07-20T07:01:26.170Z,96.90
2017-07-20T07:03:54.515Z,96.20
2017-07-20T07:06:23.881Z,96.40
2017-07-20T07:08:53.133Z,96.40
2017-07-20T07:11:25.977Z,96.00
2017-07-20T07:13:55.200Z,95.60
2017-07-20T07:16:23.553Z,95.60
2017-07-20T07:18:52.869Z,95.50
2017-07-20T07:21:21.202Z,95.50
2017-07-20T07:23:49.608Z,95.00
2017-07-20T07:26:18.916Z,94.70
2017-07-20T07:28:47.248Z,94.20
2017-07-20T07:31:15.565Z,93.70
2017-07-20T07:33:45.618Z,94.10
2017-07-20T07:36:13.961Z,94.00
2017-07-20T07:38:42.308Z,94.00
2017-07-20T07:41:10.838Z,93.70
2017-07-20T07:43:39.178Z,93.90
2017-07-20T07:46:07.505Z,93.70
2017-07-20T07:48:36.990Z,94.00
2017-07-20T07:51:05.456Z,93.60
2017-07-20T07:53:33.898Z,93.70
2017-07-20T07:56:03.533Z,93.30
2017-07-20T07:58:34.109Z,93.30
2017-07-20T08:01:03.341Z,92.90
2017-07-20T08:03:32.344Z,92.90
2017-07-20T08:06:00.713Z,92.90
2017-07-20T08:08:29.331Z,93.00
2017-07-20T08:10:58.351Z,93.30
2017-07-20T08:13:27.158Z,93.20
2017-07-20T08:15:55.561Z,93.40
2017-07-20T08:18:24.048Z,93.80
2017-07-20T08:20:52.373Z,93.70
2017-07-20T08:23:20.725Z,94.00
2017-07-20T08:25:51.381Z,93.40
2017-07-20T08:28:19.730Z,93.40
2017-07-20T08:30:48.044Z,92.80
2017-07-20T08:33:18.231Z,93.20
2017-07-20T08:35:46.623Z,93.10
2017-07-20T08:38:15.709Z,93.10
2017-07-20T08:40:44.852Z,92.70
2017-07-20T08:43:13.202Z,92.60
2017-07-20T08:45:41.535Z,92.40
2017-07-20T08:48:10.434Z,92.30
2017-07-20T08:50:38.790Z,92.20
2017-07-20T08:53:12.606Z,92.20
2017-07-20T08:55:41.821Z,92.00
2017-07-20T08:58:10.913Z,92.20
2017-07-20T09:00:40.362Z,91.80
2017-07-20T09:03:08.762Z,91.80
2017-07-20T09:05:37.192Z,92.00
2017-07-20T09:08:06.897Z,92.30
2017-07-20T09:10:35.279Z,92.10
2017-07-20T09:13:04.378Z,92.30
2017-07-20T09:15:33.909Z,92.30
2017-07-20T09:18:02.301Z,92.30
2017-07-20T09:20:30.661Z,92.50
2017-07-20T09:23:00.243Z,92.10
2017-07-20T09:25:28.646Z,92.10
2017-07-20T09:27:57.076Z,91.60
2017-07-20T09:30:26.607Z,91.30
2017-07-20T09:32:55.005Z,91.30
2017-07-20T09:35:23.385Z,90.90
2017-07-20T09:37:53.363Z,89.80
2017-07-20T09:40:21.703Z,90.20
2017-07-20T09:42:50.050Z,90.50
2017-07-20T09:45:31.492Z,90.90
2017-07-20T09:47:59.848Z,91.20
2017-07-20T09:50:28.509Z,91.00
2017-07-20T09:52:57.801Z,90.50
2017-07-20T09:55:26.125Z,88.80
2017-07-20T09:57:54.474Z,89.10
2017-07-20T10:00:23.368Z,89.90
2017-07-20T10:02:51.806Z,89.00
2017-07-20T10:05:20.192Z,88.30
2017-07-20T10:07:48.555Z,89.90
2017-07-20T10:10:16.882Z,89.60
2017-07-20T10:12:45.221Z,88.70
2017-07-20T10:15:14.750Z,88.10
2017-07-20T10:17:43.105Z,87.10
2017-07-20T10:20:11.433Z,86.10
2017-07-20T10:22:40.994Z,86.10
2017-07-20T10:25:09.323Z,86.80
2017-07-20T10:27:37.644Z,85.00
2017-07-20T10:30:06.120Z,84.60
2017-07-20T10:32:35.474Z,84.20
2017-07-20T10:35:03.965Z,84.80
2017-07-20T10:37:32.425Z,85.90
2017-07-20T10:40:01.351Z,85.70
2017-07-20T10:42:29.790Z,85.60
2017-07-20T10:44:58.753Z,86.10
2017-07-20T10:47:28.200Z,85.80
2017-07-20T10:49:56.563Z,86.20
2017-07-20T10:52:25.635Z,86.50
2017-07-20T10:54:53.979Z,87.00
2017-07-20T10:57:23.162Z,87.50
2017-07-20T10:59:51.895Z,87.50
2017-07-20T11:02:20.269Z,87.00
2017-07-20T11:04:58.964Z,86.40
2017-07-20T11:07:27.473Z,86.70
2017-07-20T11:09:55.826Z,87.70
2017-07-20T11:12:24.627Z,88.50
2017-07-20T11:14:53.221Z,89.40
2017-07-20T11:17:22.494Z,89.60
2017-07-20T11:19:55.557Z,90.20
2017-07-20T11:22:24.912Z,90.80
2017-07-20T11:24:54.009Z,90.90
2017-07-20T11:27:23.606Z,90.90
2017-07-20T11:29:52.865Z,90.30
2017-07-20T11:32:21.979Z,91.60
2017-07-20T11:34:50.758Z,91.50
2017-07-20T11:37:19.130Z,91.50
2017-07-20T11:39:47.456Z,92.10
2017-07-20T11:42:17.165Z,91.30
2017-07-20T11:44:45.494Z,91.50
2017-07-20T11:47:14.633Z,91.70
2017-07-20T11:49:44.217Z,91.60
2017-07-20T11:52:12.533Z,91.60
2017-07-20T11:54:40.860Z,91.00
2017-07-20T11:57:09.329Z,91.20
2017-07-20T11:59:37.678Z,91.80
2017-07-20T12:02:06.093Z,91.40
2017-07-20T12:04:34.809Z,91.20
2017-07-20T12:07:03.223Z,90.80
2017-07-20T12:09:32.364Z,91.20
2017-07-20T12:12:01.120Z,91.20
2017-07-20T12:14:30.596Z,91.70
2017-07-20T12:16:59.182Z,91.10
2017-07-20T12:19:28.144Z,91.70
2017-07-20T12:21:56.532Z,91.00
2017-07-20T12:24:24.865Z,91.10
2017-07-20T12:26:53.775Z,91.10
2017-07-20T12:29:22.095Z,91.90
2017-07-20T12:31:50.459Z,91.90
2017-07-20T12:34:19.165Z,91.40
2017-07-20T12:36:47.480Z,92.00
2017-07-20T12:39:15.807Z,91.80
2017-07-20T12:41:44.279Z,92.00
2017-07-20T12:44:12.671Z,92.20
2017-07-20T12:46:41.027Z,92.00
2017-07-20T12:49:10.472Z,92.40
2017-07-20T12:51:38.837Z,92.40
2017-07-20T12:54:07.174Z,92.40
2017-07-20T12:56:35.990Z,92.20
2017-07-20T12:59:04.369Z,92.90
2017-07-20T13:01:32.752Z,93.10
2017-07-20T13:04:01.778Z,93.70
2017-07-20T13:06:30.232Z,93.50
2017-07-20T13:08:58.746Z,94.00
2017-07-20T13:11:27.940Z,93.30
2017-07-20T13:13:56.327Z,93.30
2017-07-20T13:16:26.654Z,93.80
2017-07-20T13:18:55.530Z,93.40
2017-07-20T13:21:23.880Z,93.60
2017-07-20T13:23:53.174Z,93.60
2017-07-20T13:26:21.753Z,93.40
2017-07-20T13:28:50.069Z,93.20
2017-07-20T13:31:19.164Z,92.60
2017-07-20T13:33:48.398Z,92.60
2017-07-20T13:36:16.828Z,92.40
2017-07-20T13:38:45.152Z,92.20
2017-07-20T13:41:14.483Z,92.00
2017-07-20T13:43:42.821Z,92.00
2017-07-20T13:46:12.304Z,92.60
2017-07-20T13:48:40.959Z,92.00
2017-07-20T13:51:09.301Z,92.00
2017-07-20T13:53:37.669Z,92.10
2017-07-20T13:56:06.248Z,92.00
2017-07-20T13:58:35.398Z,91.90
2017-07-20T14:01:03.784Z,91.90
2017-07-20T14:03:33.234Z,91.50
2017-07-20T14:06:01.694Z,91.50
2017-07-20T14:08:30.126Z,91.30
2017-07-20T14:10:58.957Z,91.10
2017-07-20T14:13:28.414Z,90.80
2017-07-20T14:15:56.796Z,90.90
2017-07-20T14:18:25.783Z,90.70
2017-07-20T14:20:54.103Z,90.60
2017-07-20T14:23:22.442Z,90.40
2017-07-20T14:25:51.683Z,90.50
2017-07-20T14:28:20.093Z,90.70
2017-07-20T14:30:49.187Z,90.90
2017-07-20T14:33:18.316Z,91.20
2017-07-20T14:35:46.632Z,91.10
2017-07-20T14:38:14.948Z,91.50
2017-07-20T14:40:44.166Z,92.00
2017-07-20T14:43:13.265Z,92.40
2017-07-20T14:45:41.637Z,92.30
2017-07-20T14:48:11.128Z,92.40
2017-07-20T14:50:39.530Z,92.20
2017-07-20T14:53:07.869Z,92.20
2017-07-20T14:55:36.369Z,92.10
2017-07-20T14:58:09.292Z,92.20
2017-07-20T15:00:39.317Z,92.40
2017-07-20T15:03:07.692Z,92.50
2017-07-20T15:05:36.062Z,92.60
2017-07-20T15:08:05.118Z,92.30
2017-07-20T15:10:33.439Z,92.00
2017-07-20T15:13:01.817Z,91.60
2017-07-20T15:15:31.380Z,91.70
2017-07-20T15:18:01.139Z,91.60
2017-07-20T15:20:29.855Z,91.60
2017-07-20T15:22:58.719Z,91.80
2017-07-20T15:25:27.827Z,91.90
2017-07-20T15:27:58.425Z,92.10
2017-07-20T15:30:28.852Z,92.00
2017-07-20T15:32:57.265Z,91.90
2017-07-20T15:35:25.619Z,91.90
2017-07-20T15:37:54.385Z,91.80
2017-07-20T15:40:22.709Z,91.60
2017-07-20T15:42:51.789Z,91.00
2017-07-20T15:45:20.912Z,90.90
2017-07-20T15:47:50.553Z,91.00
2017-07-20T15:50:19.764Z,90.30
2017-07-20T15:52:48.465Z,90.30
2017-07-20T15:55:16.829Z,89.50
2017-07-20T15:57:45.141Z,87.10
2017-07-20T16:00:14.252Z,85.90
2017-07-20T16:02:42.583Z,85.50
2017-07-20T16:05:11.674Z,82.60
2017-07-20T16:07:41.726Z,82.50
2017-07-20T16:10:10.058Z,79.30
2017-07-20T16:12:38.401Z,77.40
2017-07-20T16:15:07.565Z,76.50
2017-07-20T16:17:36.011Z,76.30
2017-07-20T16:20:04.405Z,76.80
2017-07-20T16:22:33.367Z,78.30
2017-07-20T16:25:01.967Z,79.30
2017-07-20T16:27:30.359Z,79.50
2017-07-20T16:29:59.853Z,79.60
2017-07-20T16:32:28.434Z,78.60
2017-07-20T16:34:56.798Z,77.90
2017-07-20T16:37:25.556Z,78.30
2017-07-20T16:39:54.160Z,79.10
2017-07-20T16:42:22.495Z,78.80
2017-07-20T16:44:51.695Z,80.30
2017-07-20T16:47:20.014Z,80.60
2017-07-20T16:49:48.324Z,79.10
2017-07-20T16:52:17.958Z,78.20
2017-07-20T16:54:46.295Z,78.10
2017-07-20T16:57:14.666Z,79.10
2017-07-20T16:59:44.404Z,79.70
2017-07-20T17:02:12.761Z,79.60
2017-07-20T17:04:41.138Z,79.60
2017-07-20T17:07:09.913Z,80.30
2017-07-20T17:09:38.306Z,81.00
2017-07-20T17:12:07.483Z,81.70
2017-07-20T17:14:36.916Z,82.40
2017-07-20T17:17:05.313Z,82.10
2017-07-20T17:19:33.704Z,81.40
2017-07-20T17:22:03.137Z,82.30
2017-07-20T17:24:31.487Z,82.00
2017-07-20T17:26:59.874Z,82.00
2017-07-20T17:29:29.637Z,81.40
2017-07-20T17:31:58.119Z,81.90
2017-07-20T17:34:26.464Z,83.20
2017-07-20T17:36:56.180Z,84.10
2017-07-20T17:39:24.517Z,84.10
2017-07-20T17:41:52.892Z,84.50
2017-07-20T17:44:21.923Z,85.20
2017-07-20T17:46:50.264Z,85.70
2017-07-20T17:49:18.582Z,86.30
2017-07-20T17:51:46.989Z,86.80
2017-07-20T17:54:16.351Z,87.20
2017-07-20T17:56:44.715Z,87.40
2017-07-20T17:59:13.800Z,87.70
2017-07-20T18:01:42.155Z,87.80
2017-07-20T18:04:10.509Z,87.30
2017-07-20T18:06:39.184Z,87.00
2017-07-20T18:09:07.611Z,86.40
2017-07-20T18:11:35.996Z,85.70
2017-07-20T18:14:04.852Z,85.30
2017-07-20T18:16:34.026Z,85.20
2017-07-20T18:19:02.458Z,85.30
2017-07-20T18:21:30.888Z,84.90
2017-07-20T18:23:59.518Z,84.80
2017-07-20T18:26:28.177Z,85.10
2017-07-20T18:28:57.665Z,85.60
2017-07-20T18:31:25.993Z,85.80
2017-07-20T18:33:54.378Z,85.80
2017-07-20T18:36:23.211Z,86.40
2017-07-20T18:38:51.604Z,87.00
2017-07-20T18:41:20.017Z,88.70
2017-07-20T18:43:50.059Z,89.10
2017-07-20T18:46:18.401Z,89.80
2017-07-20T18:48:47.504Z,90.40
2017-07-20T18:51:15.910Z,90.70
2017-07-20T18:53:44.234Z,90.60
2017-07-20T18:56:12.979Z,90.70
2017-07-20T18:58:42.461Z,91.00
2017-07-20T19:01:12.581Z,91.10
2017-07-20T19:03:41.707Z,91.30
2017-07-20T19:06:10.328Z,91.30
2017-07-20T19:08:39.538Z,91.50
2017-07-20T19:11:07.929Z,91.50
2017-07-20T19:13:36.662Z,91.60
2017-07-20T19:16:05.133Z,91.80
2017-07-20T19:18:33.578Z,91.90
2017-07-20T19:21:03.756Z,91.60
2017-07-20T19:23:36.712Z,91.80
2017-07-20T19:26:06.650Z,91.80
2017-07-20T19:28:35.205Z,91.80
2017-07-20T19:31:04.368Z,92.00
2017-07-20T19:33:33.931Z,92.00
2017-07-20T19:36:05.319Z,92.20
2017-07-20T19:38:39.118Z,92.20
2017-07-20T19:41:08.370Z,92.20
2017-07-20T19:43:37.253Z,92.20
2017-07-20T19:46:07.215Z,92.70
2017-07-20T19:48:37.788Z,92.70
2017-07-20T19:51:06.853Z,92.70
2017-07-20T19:53:36.826Z,92.90
2017-07-20T19:56:06.337Z,92.90
2017-07-20T19:58:37.758Z,93.10
2017-07-20T20:01:06.404Z,93.10
2017-07-20T20:03:34.913Z,93.10
2017-07-20T20:06:04.657Z,93.30
2017-07-20T20:08:33.043Z,93.20
2017-07-20T20:11:02.308Z,93.20
2017-07-20T20:13:31.758Z,93.20
2017-07-20T20:16:00.307Z,93.20
2017-07-20T20:18:31.771Z,93.20
2017-07-20T20:21:00.672Z,93.10
2017-07-20T20:23:29.173Z,93.30
2017-07-20T20:25:57.734Z,93.10
2017-07-20T20:28:26.621Z,93.20
2017-07-20T20:30:54.954Z,93.30
2017-07-20T20:33:23.309Z,93.40
2017-07-20T20:35:51.961Z,93.50
2017-07-20T20:38:20.334Z,93.50
2017-07-20T20:40:48.744Z,93.50
2017-07-20T20:43:18.025Z,93.40
2017-07-20T20:45:46.340Z,93.50
2017-07-20T20:48:14.680Z,93.50
2017-07-20T20:50:44.178Z,93.60
2017-07-20T20:53:13.361Z,93.50
2017-07-20T20:55:42.478Z,93.50
2017-07-20T20:58:12.774Z,93.50
2017-07-20T21:00:42.595Z,93.60
2017-07-20T21:03:10.935Z,93.70
2017-07-20T21:05:40.430Z,93.70
2017-07-20T21:08:08.949Z,93.80
2017-07-20T21:10:37.480Z,93.90
2017-07-20T21:13:06.521Z,94.10
2017-07-20T21:15:34.989Z,94.30
2017-07-20T21:18:03.508Z,94.50
2017-07-20T21:20:32.176Z,94.90
2017-07-20T21:23:00.864Z,94.90
2017-07-20T21:25:29.458Z,95.00
2017-07-20T21:27:58.558Z,95.20
2017-07-20T21:30:26.975Z,95.50
2017-07-20T21:32:55.414Z,95.50
2017-07-20T21:35:24.498Z,95.50
2017-07-20T21:37:52.837Z,95.60
2017-07-20T21:40:21.178Z,95.60
2017-07-20T21:42:50.242Z,95.70
2017-07-20T21:45:19.325Z,95.50
2017-07-20T21:47:47.653Z,95.50
2017-07-20T21:50:16.402Z,95.70
2017-07-20T21:52:44.756Z,95.80
2017-07-20T21:55:13.109Z,95.90
2017-07-20T21:57:41.695Z,95.90
2017-07-20T22:00:10.116Z,96.30
2017-07-20T22:02:38.914Z,96.50
2017-07-20T22:05:07.761Z,96.50
2017-07-20T22:07:36.223Z,96.40
2017-07-20T22:10:06.470Z,96.60
2017-07-20T22:12:35.942Z,96.50
2017-07-20T22:15:04.517Z,96.90
2017-07-20T22:17:32.996Z,96.90
2017-07-20T22:20:02.441Z,96.80
2017-07-20T22:22:31.781Z,96.90
2017-07-20T22:25:00.673Z,96.90
2017-07-20T22:27:30.549Z,96.70
2017-07-20T22:29:59.478Z,96.60
2017-07-20T22:32:28.060Z,96.50
2017-07-20T22:34:57.362Z,96.50
2017-07-20T22:37:25.856Z,98.10
2017-07-20T22:39:55.188Z,98.90
2017-07-20T22:42:24.519Z,99.90
2017-07-20T22:44:52.844Z,99.90
2017-07-20T22:47:21.245Z,99.90
2017-07-20T22:49:49.660Z,99.90
2017-07-20T22:52:17.972Z,99.90
2017-07-20T22:54:46.328Z,99.90
2017-07-20T22:57:15.005Z,99.90
2017-07-20T22:59:43.324Z,99.90
2017-07-20T23:02:12.418Z,99.90
2017-07-20T23:04:41.511Z,99.90
2017-07-20T23:07:09.925Z,99.90
2017-07-20T23:09:39.145Z,99.90
2017-07-20T23:12:07.620Z,99.90
2017-07-20T23:14:36.013Z,99.90
2017-07-20T23:17:05.459Z,99.90
2017-07-20T23:19:34.669Z,99.90
2017-07-20T23:22:03.237Z,99.90
2017-07-20T23:24:31.916Z,99.90
2017-07-20T23:27:00.599Z,99.90
2017-07-20T23:29:30.062Z,99.90
2017-07-20T23:31:58.768Z,99.90
2017-07-20T23:34:28.457Z,99.90
2017-07-20T23:36:56.842Z,99.90
2017-07-20T23:39:25.344Z,99.90
2017-07-20T23:41:54.149Z,99.90
2017-07-20T23:44:22.876Z,99.90
2017-07-20T23:46:51.222Z,99.90
2017-07-20T23:49:19.582Z,99.90
2017-07-20T23:51:47.917Z,99.90
2017-07-20T23:54:16.290Z,99.90
2017-07-20T23:56:45.430Z,99.90
2017-07-20T23:59:13.785Z,99.90
